Time;durP1;ratioP1;P1;durP2;ratioP2;P2;SDS_P1;SDS_P2;PMS_P1;PMS_P2;Temp;Humidity;BMP_temperature;BMP_pressure;BME280_temperature;BME280_humidity;BME280_pressure;Samples;Min_cycle;Max_cycle;Signal;HPM_P1;HPM_P2
2023/04/11 00:01:48;;;;;;;;;;;307.70;2304.00;;;;;;5073459;28;19935;-71
2023/04/11 00:04:15;;;;;;;;;;;307.60;2304.00;;;;;;5057022;28;19950;-69
2023/04/11 00:06:41;;;;;;;;;;;307.60;2304.00;;;;;;5053520;28;19958;-69
2023/04/11 00:09:07;;;;;;;;;;;307.60;2304.00;;;;;;5068508;28;19999;-78
2023/04/11 00:11:33;;;;;;;;;;;307.60;2304.00;;;;;;5053222;28;19909;-70
2023/04/11 00:13:58;;;;;;;;;;;307.50;2304.00;;;;;;5053350;28;19912;-74
2023/04/11 00:16:25;;;;;;;;;;;307.40;2304.00;;;;;;5053280;28;19913;-72
2023/04/11 00:18:51;;;;;;;;;;;307.40;2304.00;;;;;;5069066;28;19936;-71
2023/04/11 00:21:16;;;;;;;;;;;307.50;2304.00;;;;;;5053042;28;19944;-71
2023/04/11 00:23:42;;;;;;;;;;;307.50;2304.00;;;;;;5053314;28;19916;-72
2023/04/11 00:26:07;;;;;;;;;;;307.50;2304.00;;;;;;5053294;28;19908;-71
2023/04/11 00:28:33;;;;;;;;;;;307.50;2304.00;;;;;;5053717;28;19966;-70
2023/04/11 00:30:59;;;;;;;;;;;307.50;2304.00;;;;;;5053471;28;19905;-73
2023/04/11 00:33:25;;;;;;;;;;;307.60;2304.00;;;;;;5053452;28;20012;-71
2023/04/11 00:35:50;;;;;;;;;;;307.50;2304.00;;;;;;5052969;28;19904;-70
2023/04/11 00:38:16;;;;;;;;;;;307.50;2304.00;;;;;;5053294;28;19947;-71
2023/04/11 00:40:42;;;;;;;;;;;307.50;2304.00;;;;;;5053046;28;20384;-70
2023/04/11 00:43:08;;;;;;;;;;;307.60;2304.00;;;;;;5052822;28;19958;-70
2023/04/11 00:45:34;;;;;;;;;;;307.60;2304.00;;;;;;5052591;28;20062;-71
2023/04/11 00:48:00;;;;;;;;;;;307.60;2304.00;;;;;;5075133;28;19916;-72
2023/04/11 00:50:26;;;;;;;;;;;307.60;2304.00;;;;;;5078518;28;19904;-71
2023/04/11 00:52:53;;;;;;;;;;;307.60;2304.00;;;;;;5081456;28;20254;-73
2023/04/11 00:55:19;;;;;;;;;;;307.50;2304.00;;;;;;5084370;28;19904;-70
2023/04/11 00:57:45;;;;;;;;;;;307.40;2304.00;;;;;;5072846;28;19911;-75
2023/04/11 01:00:11;;;;;;;;;;;307.50;2304.00;;;;;;5075950;28;20288;-77
2023/04/11 01:02:37;;;;;;;;;;;307.60;2304.00;;;;;;5075557;28;19912;-72
2023/04/11 01:05:06;;;;;;;;;;;307.40;2304.00;;;;;;5080912;28;19963;-71
2023/04/11 01:07:32;;;;;;;;;;;307.50;2304.00;;;;;;5075467;28;19909;-71
2023/04/11 01:09:59;;;;;;;;;;;307.60;2304.00;;;;;;5075414;28;19936;-70
2023/04/11 01:12:26;;;;;;;;;;;307.60;2304.00;;;;;;5074677;28;19911;-71
2023/04/11 01:14:51;;;;;;;;;;;307.60;2304.00;;;;;;5077609;28;19908;-71
2023/04/11 01:17:17;;;;;;;;;;;307.50;2304.00;;;;;;5077826;28;19916;-74
2023/04/11 01:19:42;;;;;;;;;;;307.40;2304.00;;;;;;5083115;28;19908;-71
2023/04/11 01:22:10;;;;;;;;;;;307.40;2304.00;;;;;;5078252;28;19923;-72
2023/04/11 01:24:35;;;;;;;;;;;307.40;2304.00;;;;;;5079123;28;19904;-77
2023/04/11 01:27:02;;;;;;;;;;;307.30;2304.00;;;;;;5080227;28;19911;-71
2023/04/11 01:29:27;;;;;;;;;;;307.30;2304.00;;;;;;5087657;28;19958;-71
2023/04/11 01:31:53;;;;;;;;;;;307.30;2304.00;;;;;;5076106;28;19995;-78
2023/04/11 01:34:20;;;;;;;;;;;307.40;2304.00;;;;;;5075725;28;19987;-71
2023/04/11 01:36:46;;;;;;;;;;;307.40;2304.00;;;;;;5079784;28;19904;-71
2023/04/11 01:39:12;;;;;;;;;;;307.90;2304.00;;;;;;5078475;28;19992;-77
2023/04/11 01:41:38;;;;;;;;;;;307.40;2304.00;;;;;;5083985;28;20020;-77
2023/04/11 01:44:04;;;;;;;;;;;307.40;2304.00;;;;;;5079741;28;20053;-71
2023/04/11 01:46:30;;;;;;;;;;;307.50;2304.00;;;;;;5079515;28;20082;-72
2023/04/11 01:48:56;;;;;;;;;;;307.50;2304.00;;;;;;5077156;28;19904;-71
2023/04/11 01:51:22;;;;;;;;;;;307.50;2304.00;;;;;;5082316;28;20346;-71
2023/04/11 01:53:47;;;;;;;;;;;307.40;2304.00;;;;;;5077741;28;19908;-74
2023/04/11 01:56:13;;;;;;;;;;;307.40;2304.00;;;;;;5090355;28;20346;-72
2023/04/11 01:58:39;;;;;;;;;;;307.40;2304.00;;;;;;5079749;28;19991;-70
2023/04/11 02:01:05;;;;;;;;;;;307.40;2304.00;;;;;;5073537;28;19964;-70
2023/04/11 02:03:30;;;;;;;;;;;307.40;2304.00;;;;;;5085139;28;19950;-70
2023/04/11 02:05:56;;;;;;;;;;;307.40;2304.00;;;;;;5086913;28;19958;-77
2023/04/11 02:08:21;;;;;;;;;;;307.30;2304.00;;;;;;5074790;28;20346;-71
2023/04/11 02:10:47;;;;;;;;;;;307.30;2304.00;;;;;;5084903;28;19911;-70
2023/04/11 02:13:13;;;;;;;;;;;307.30;2304.00;;;;;;5073850;28;19904;-71
2023/04/11 02:15:38;;;;;;;;;;;307.20;2304.00;;;;;;5084046;28;19908;-70
2023/04/11 02:18:04;;;;;;;;;;;282.50;2278.40;;;;;;5088673;28;19915;-75
2023/04/11 02:20:29;;;;;;;;;;;282.40;2278.40;;;;;;5084128;28;19991;-74
2023/04/11 02:22:57;;;;;;;;;;;282.20;2278.40;;;;;;5086278;28;19908;-71
2023/04/11 02:25:23;;;;;;;;;;;282.10;2278.40;;;;;;5085456;28;19944;-70
2023/04/11 02:27:48;;;;;;;;;;;282.10;2278.40;;;;;;5079097;28;19952;-70
2023/04/11 02:30:14;;;;;;;;;;;282.00;2278.40;;;;;;5076205;28;19906;-71
2023/04/11 02:32:39;;;;;;;;;;;281.90;2278.40;;;;;;5078958;28;19911;-70
2023/04/11 02:35:06;;;;;;;;;;;281.80;2278.40;;;;;;5075893;28;19904;-75
2023/04/11 02:37:32;;;;;;;;;;;281.80;2278.40;;;;;;5073411;28;19909;-70
2023/04/11 02:39:57;;;;;;;;;;;281.90;2278.40;;;;;;5073099;28;20369;-70
2023/04/11 02:42:23;;;;;;;;;;;281.80;2278.40;;;;;;5072934;28;19912;-71
2023/04/11 02:44:49;;;;;;;;;;;281.70;2278.40;;;;;;5075500;28;19946;-70
2023/04/11 02:47:14;;;;;;;;;;;281.60;2278.40;;;;;;5073344;28;19920;-71
2023/04/11 02:49:41;;;;;;;;;;;281.60;2278.40;;;;;;5075902;28;19912;-70
2023/04/11 02:52:06;;;;;;;;;;;281.60;2278.40;;;;;;5078680;28;20365;-72
2023/04/11 02:54:32;;;;;;;;;;;281.60;2278.40;;;;;;5072670;28;19947;-70
2023/04/11 02:56:59;;;;;;;;;;;281.60;2278.40;;;;;;5075681;28;19905;-73
2023/04/11 02:59:25;;;;;;;;;;;281.70;2278.40;;;;;;5072835;28;19904;-73
2023/04/11 03:01:55;;;;;;;;;;;281.70;2278.40;;;;;;5072514;28;19913;-74
2023/04/11 03:04:21;;;;;;;;;;;281.60;2278.40;;;;;;5077412;28;19904;-70
2023/04/11 03:06:46;;;;;;;;;;;281.60;2278.40;;;;;;5076517;28;20304;-72
2023/04/11 03:09:12;;;;;;;;;;;256.90;2252.80;;;;;;5080864;28;20406;-70
2023/04/11 03:11:37;;;;;;;;;;;256.90;2252.80;;;;;;5072572;28;20350;-78
2023/04/11 03:14:03;;;;;;;;;;;256.70;2252.80;;;;;;5071787;28;19911;-71
2023/04/11 03:16:28;;;;;;;;;;;256.50;2252.80;;;;;;5075478;28;19995;-70
2023/04/11 03:18:54;;;;;;;;;;;256.30;2252.80;;;;;;5072385;28;19962;-70
2023/04/11 03:21:20;;;;;;;;;;;256.30;2252.80;;;;;;5076694;28;19912;-71
2023/04/11 03:23:45;;;;;;;;;;;256.30;2252.80;;;;;;5074021;28;20269;-71
2023/04/11 03:26:11;;;;;;;;;;;256.30;2252.80;;;;;;5083976;28;20002;-70
2023/04/11 03:28:37;;;;;;;;;;;256.30;2252.80;;;;;;5080998;28;19951;-70
2023/04/11 03:31:03;;;;;;;;;;;256.10;2252.80;;;;;;5075400;28;19909;-72
2023/04/11 03:33:28;;;;;;;;;;;231.30;2252.80;;;;;;5075151;28;19908;-70
2023/04/11 03:35:54;;;;;;;;;;;231.00;2252.80;;;;;;5072698;28;19904;-70
2023/04/11 03:38:20;;;;;;;;;;;231.00;2252.80;;;;;;5080160;28;19950;-70
2023/04/11 03:40:45;;;;;;;;;;;231.00;2252.80;;;;;;5074894;28;20266;-71
2023/04/11 03:43:11;;;;;;;;;;;231.10;2252.80;;;;;;5072329;28;19954;-71
2023/04/11 03:45:36;;;;;;;;;;;231.10;2252.80;;;;;;5074421;28;19923;-70
2023/04/11 03:48:02;;;;;;;;;;;230.90;2252.80;;;;;;5077727;28;19919;-74
2023/04/11 03:50:27;;;;;;;;;;;230.80;2252.80;;;;;;5075078;28;20423;-70
2023/04/11 03:52:53;;;;;;;;;;;230.90;2252.80;;;;;;5072164;28;20345;-72
2023/04/11 03:55:19;;;;;;;;;;;231.00;2252.80;;;;;;5075811;28;20345;-71
2023/04/11 03:57:45;;;;;;;;;;;231.10;2252.80;;;;;;5076656;28;19911;-70
2023/04/11 04:00:11;;;;;;;;;;;231.20;2252.80;;;;;;5074931;28;19908;-71
2023/04/11 04:02:36;;;;;;;;;;;231.30;2252.80;;;;;;5078465;28;19916;-71
2023/04/11 04:05:02;;;;;;;;;;;231.30;2252.80;;;;;;5072021;28;19955;-72
2023/04/11 04:07:27;;;;;;;;;;;231.30;2252.80;;;;;;5072142;28;19904;-70
2023/04/11 04:09:53;;;;;;;;;;;231.00;2252.80;;;;;;5075419;28;19959;-70
2023/04/11 04:12:19;;;;;;;;;;;230.90;2252.80;;;;;;5069100;28;19911;-72
2023/04/11 04:14:45;;;;;;;;;;;231.00;2252.80;;;;;;5080126;28;19931;-71
2023/04/11 04:17:12;;;;;;;;;;;231.20;2252.80;;;;;;5074809;28;19948;-71
2023/04/11 04:19:37;;;;;;;;;;;231.30;2252.80;;;;;;5070455;28;20324;-71
2023/04/11 04:22:04;;;;;;;;;;;231.30;2252.80;;;;;;5062597;28;19999;-69
2023/04/11 04:24:30;;;;;;;;;;;231.30;2252.80;;;;;;5057997;28;19911;-72
2023/04/11 04:26:59;;;;;;;;;;;256.00;2252.80;;;;;;5060064;28;19909;-69
2023/04/11 04:29:36;;;;;;;;;;;231.20;2252.80;;;;;;5064800;28;19904;-70
2023/04/11 04:32:09;;;;;;;;;;;231.30;2252.80;;;;;;5068230;28;19912;-71
2023/04/11 04:34:54;;;;;;;;;;;231.30;2252.80;;;;;;5067068;28;20354;-71
2023/04/11 04:37:21;;;;;;;;;;;231.30;2252.80;;;;;;5080280;28;19912;-70
2023/04/11 04:39:54;;;;;;;;;;;231.30;2252.80;;;;;;5067029;28;19992;-70
2023/04/11 04:42:20;;;;;;;;;;;256.00;2252.80;;;;;;5065623;28;19912;-70
2023/04/11 04:44:46;;;;;;;;;;;256.20;2252.80;;;;;;5059004;28;20017;-70
2023/04/11 04:47:11;;;;;;;;;;;256.30;2252.80;;;;;;5067751;28;20010;-70
2023/04/11 04:49:37;;;;;;;;;;;256.40;2252.80;;;;;;5066622;28;19908;-73
2023/04/11 04:52:03;;;;;;;;;;;256.50;2252.80;;;;;;5065274;28;19908;-70
2023/04/11 04:54:30;;;;;;;;;;;256.50;2252.80;;;;;;5061692;28;19915;-70
2023/04/11 04:56:55;;;;;;;;;;;256.60;2252.80;;;;;;5062464;28;19991;-70
2023/04/11 04:59:21;;;;;;;;;;;256.50;2252.80;;;;;;5078174;28;20374;-71
2023/04/11 05:01:50;;;;;;;;;;;256.60;2252.80;;;;;;5065878;28;19975;-70
2023/04/11 05:04:16;;;;;;;;;;;256.70;2252.80;;;;;;5065278;28;19905;-70
2023/04/11 05:06:41;;;;;;;;;;;256.70;2252.80;;;;;;5064937;28;19931;-70
2023/04/11 05:09:07;;;;;;;;;;;256.80;2252.80;;;;;;5063561;28;19904;-70
2023/04/11 05:11:33;;;;;;;;;;;256.60;2252.80;;;;;;5059256;28;20463;-71
2023/04/11 05:13:58;;;;;;;;;;;256.60;2252.80;;;;;;5070179;28;19919;-70
2023/04/11 05:16:24;;;;;;;;;;;256.80;2252.80;;;;;;5062145;28;19916;-70
2023/04/11 05:18:49;;;;;;;;;;;256.80;2252.80;;;;;;5058745;28;19922;-69
2023/04/11 05:21:15;;;;;;;;;;;256.80;2252.80;;;;;;5064168;28;19916;-69
2023/04/11 05:23:40;;;;;;;;;;;256.90;2252.80;;;;;;5061435;28;20401;-70
2023/04/11 05:26:07;;;;;;;;;;;281.60;2278.40;;;;;;5067956;28;19916;-71
2023/04/11 05:28:33;;;;;;;;;;;281.60;2278.40;;;;;;5059679;28;20009;-70
2023/04/11 05:30:58;;;;;;;;;;;281.60;2278.40;;;;;;5060230;28;19939;-71
2023/04/11 05:33:24;;;;;;;;;;;281.60;2278.40;;;;;;5066728;28;19944;-70
2023/04/11 05:35:50;;;;;;;;;;;281.60;2278.40;;;;;;5060216;28;19904;-70
2023/04/11 05:38:15;;;;;;;;;;;281.60;2278.40;;;;;;5061904;28;19904;-71
2023/04/11 05:40:41;;;;;;;;;;;281.60;2278.40;;;;;;5066918;28;19998;-72
2023/04/11 05:43:07;;;;;;;;;;;281.60;2278.40;;;;;;5077586;28;19904;-72
2023/04/11 05:45:33;;;;;;;;;;;281.60;2278.40;;;;;;5068912;28;20376;-70
2023/04/11 05:47:58;;;;;;;;;;;256.90;2252.80;;;;;;5066056;28;19909;-70
2023/04/11 05:50:24;;;;;;;;;;;281.60;2278.40;;;;;;5061268;28;19912;-75
2023/04/11 05:52:50;;;;;;;;;;;281.70;2278.40;;;;;;5062252;28;19950;-70
2023/04/11 05:55:16;;;;;;;;;;;281.70;2278.40;;;;;;5062788;28;19909;-72
2023/04/11 05:57:41;;;;;;;;;;;281.70;2278.40;;;;;;5059004;28;19905;-69
2023/04/11 06:00:15;;;;;;;;;;;281.80;2278.40;;;;;;5065954;28;19948;-71
2023/04/11 06:02:41;;;;;;;;;;;281.90;2278.40;;;;;;5057502;28;20003;-71
2023/04/11 06:05:09;;;;;;;;;;;282.00;2278.40;;;;;;5058144;28;19905;-71
2023/04/11 06:07:35;;;;;;;;;;;282.00;2278.40;;;;;;5065708;28;20250;-72
2023/04/11 06:10:00;;;;;;;;;;;282.10;2278.40;;;;;;5064229;28;19911;-71
2023/04/11 06:12:26;;;;;;;;;;;282.20;2278.40;;;;;;5062698;28;19916;-71
2023/04/11 06:14:52;;;;;;;;;;;282.20;2278.40;;;;;;5064675;28;19995;-79
2023/04/11 06:17:17;;;;;;;;;;;282.30;2278.40;;;;;;5061279;28;19999;-73
2023/04/11 06:19:43;;;;;;;;;;;282.40;2278.40;;;;;;5062816;28;19904;-72
2023/04/11 06:22:08;;;;;;;;;;;282.50;2278.40;;;;;;5062851;28;19912;-70
2023/04/11 06:24:38;;;;;;;;;;;307.30;2304.00;;;;;;5064451;28;19904;-73
2023/04/11 06:27:04;;;;;;;;;;;307.60;2304.00;;;;;;5063718;28;19905;-77
2023/04/11 06:29:30;;;;;;;;;;;307.60;2304.00;;;;;;5060751;28;19999;-70
2023/04/11 06:31:56;;;;;;;;;;;307.60;2304.00;;;;;;5065237;28;20053;-69
2023/04/11 06:34:22;;;;;;;;;;;307.70;2304.00;;;;;;5067094;28;19905;-71
2023/04/11 06:36:48;;;;;;;;;;;307.70;2304.00;;;;;;5062554;28;19911;-71
2023/04/11 06:39:15;;;;;;;;;;;307.80;2304.00;;;;;;5065146;28;19929;-73
2023/04/11 06:41:41;;;;;;;;;;;308.00;2304.00;;;;;;5060354;28;19912;-70
2023/04/11 06:44:06;;;;;;;;;;;308.00;2304.00;;;;;;5060338;28;19911;-76
2023/04/11 06:46:32;;;;;;;;;;;308.00;2304.00;;;;;;5064934;28;20369;-71
2023/04/11 06:48:58;;;;;;;;;;;308.10;2304.00;;;;;;5064166;28;19905;-70
2023/04/11 06:51:23;;;;;;;;;;;308.00;2304.00;;;;;;5057284;28;19905;-70
2023/04/11 06:53:49;;;;;;;;;;;308.00;2304.00;;;;;;5057944;28;19928;-74
2023/04/11 06:56:16;;;;;;;;;;;308.10;2304.00;;;;;;5069816;28;19927;-71
2023/04/11 06:58:42;;;;;;;;;;;308.10;2304.00;;;;;;5063541;28;19908;-72
2023/04/11 07:01:07;;;;;;;;;;;308.10;2304.00;;;;;;5064335;28;19936;-73
2023/04/11 07:03:33;;;;;;;;;;;308.10;2304.00;;;;;;5065498;28;19930;-70
2023/04/11 07:05:58;;;;;;;;;;;332.90;2329.60;;;;;;5061861;28;19905;-72
2023/04/11 07:08:24;;;;;;;;;;;332.90;2329.60;;;;;;5063882;28;19905;-74
2023/04/11 07:10:49;;;;;;;;;;;333.00;2329.60;;;;;;5081421;28;19904;-70
2023/04/11 07:13:15;;;;;;;;;;;333.20;2329.60;;;;;;5062684;28;20274;-75
2023/04/11 07:15:40;;;;;;;;;;;333.20;2329.60;;;;;;5062841;28;19934;-74
2023/04/11 07:18:06;;;;;;;;;;;333.20;2329.60;;;;;;5065826;28;20265;-70
2023/04/11 07:20:32;;;;;;;;;;;333.20;2329.60;;;;;;5067378;28;19911;-71
2023/04/11 07:22:57;;;;;;;;;;;333.40;2329.60;;;;;;5061792;28;19915;-71
2023/04/11 07:25:29;;;;;;;;;;;333.40;2329.60;;;;;;5061817;28;20278;-72
2023/04/11 07:27:55;;;;;;;;;;;333.60;2329.60;;;;;;5063397;28;22113;-71
2023/04/11 07:30:21;;;;;;;;;;;333.70;2329.60;;;;;;5057418;28;19904;-71
2023/04/11 07:32:47;;;;;;;;;;;358.40;2329.60;;;;;;5064555;28;20010;-70
2023/04/11 07:35:12;;;;;;;;;;;358.50;2329.60;;;;;;5058562;28;19909;-73
2023/04/11 07:37:38;;;;;;;;;;;358.50;2329.60;;;;;;5059922;28;19912;-70
2023/04/11 07:40:09;;;;;;;;;;;358.50;2329.60;;;;;;5078682;28;19909;-72
2023/04/11 07:42:35;;;;;;;;;;;358.70;2329.60;;;;;;5058009;28;20331;-72
2023/04/11 07:45:00;;;;;;;;;;;358.80;2329.60;;;;;;5056723;28;19912;-71
2023/04/11 07:47:26;;;;;;;;;;;358.90;2329.60;;;;;;5058648;28;19924;-74
2023/04/11 07:49:51;;;;;;;;;;;359.00;2329.60;;;;;;5063324;28;19950;-71
2023/04/11 07:52:17;;;;;;;;;;;359.00;2329.60;;;;;;5057132;28;19904;-70
2023/04/11 07:54:43;;;;;;;;;;;359.10;2329.60;;;;;;5059187;28;19915;-71
2023/04/11 07:57:08;;;;;;;;;;;359.20;2329.60;;;;;;5059422;28;19962;-71
2023/04/11 07:59:34;;;;;;;;;;;359.10;2329.60;;;;;;5066685;28;19912;-70
2023/04/11 08:02:00;;;;;;;;;;;359.10;2329.60;;;;;;5063997;28;19912;-70
2023/04/11 08:04:32;;;;;;;;;;;359.20;2329.60;;;;;;5067889;28;20389;-69
2023/04/11 08:06:58;;;;;;;;;;;359.20;2329.60;;;;;;5066225;28;20262;-70
2023/04/11 08:09:24;;;;;;;;;;;359.20;2329.60;;;;;;5063237;28;19928;-71
2023/04/11 08:11:49;;;;;;;;;;;359.20;2329.60;;;;;;5066314;28;20337;-73
2023/04/11 08:14:15;;;;;;;;;;;359.20;2329.60;;;;;;5063288;28;20258;-70
2023/04/11 08:16:41;;;;;;;;;;;359.30;2329.60;;;;;;5066188;28;20354;-69
2023/04/11 08:19:06;;;;;;;;;;;359.30;2329.60;;;;;;5067173;28;19911;-71
2023/04/11 08:21:32;;;;;;;;;;;384.00;2329.60;;;;;;5059414;28;19913;-71
2023/04/11 08:23:57;;;;;;;;;;;384.00;2329.60;;;;;;5059877;28;20450;-72
2023/04/11 08:26:23;;;;;;;;;;;384.20;2329.60;;;;;;5066955;28;19912;-73
2023/04/11 08:28:49;;;;;;;;;;;384.30;2329.60;;;;;;5063212;28;19999;-74
2023/04/11 08:31:14;;;;;;;;;;;384.30;2329.60;;;;;;5063115;28;19927;-72
2023/04/11 08:33:40;;;;;;;;;;;384.30;2329.60;;;;;;5066720;28;19904;-73
2023/04/11 08:36:09;;;;;;;;;;;384.30;2329.60;;;;;;5060240;28;19904;-70
2023/04/11 08:38:35;;;;;;;;;;;384.40;2329.60;;;;;;5062013;28;20285;-71
2023/04/11 08:41:00;;;;;;;;;;;384.50;2329.60;;;;;;5070911;28;20011;-73
2023/04/11 08:43:26;;;;;;;;;;;384.50;2329.60;;;;;;5067906;28;19905;-76
2023/04/11 08:45:52;;;;;;;;;;;384.60;2329.60;;;;;;5060482;28;19917;-70
2023/04/11 08:48:20;;;;;;;;;;;384.70;2329.60;;;;;;5064305;28;19932;-71
2023/04/11 08:50:46;;;;;;;;;;;384.80;2329.60;;;;;;5069922;28;19943;-71
2023/04/11 08:53:13;;;;;;;;;;;384.90;2329.60;;;;;;5060666;28;19905;-71
2023/04/11 08:55:45;;;;;;;;;;;409.60;2355.20;;;;;;5065743;28;20034;-71
2023/04/11 08:58:11;;;;;;;;;;;409.90;2355.20;;;;;;5063104;28;19908;-72
2023/04/11 09:00:37;;;;;;;;;;;409.60;2355.20;;;;;;5065464;28;20502;-76
2023/04/11 09:03:04;;;;;;;;;;;384.90;2329.60;;;;;;5067511;28;20041;-74
2023/04/11 09:05:29;;;;;;;;;;;409.60;2355.20;;;;;;5069091;28;20392;-72
2023/04/11 09:07:56;;;;;;;;;;;409.80;2355.20;;;;;;5063497;28;19940;-74
2023/04/11 09:10:22;;;;;;;;;;;409.60;2355.20;;;;;;5068590;28;19905;-70
2023/04/11 09:12:47;;;;;;;;;;;384.90;2329.60;;;;;;5061948;28;19927;-72
2023/04/11 09:15:16;;;;;;;;;;;384.90;2329.60;;;;;;5060148;28;19908;-72
2023/04/11 09:17:42;;;;;;;;;;;409.70;2355.20;;;;;;5062272;28;19942;-70
2023/04/11 09:20:21;;;;;;;;;;;409.90;2355.20;;;;;;5064312;28;19911;-70
2023/04/11 09:22:49;;;;;;;;;;;409.90;2355.20;;;;;;5059605;28;20255;-74
2023/04/11 09:25:18;;;;;;;;;;;409.90;2355.20;;;;;;5062574;28;20061;-72
2023/04/11 09:27:44;;;;;;;;;;;409.90;2355.20;;;;;;5058154;28;19912;-70
2023/04/11 09:30:21;;;;;;;;;;;410.10;2355.20;;;;;;5059393;28;19905;-71
2023/04/11 09:32:47;;;;;;;;;;;410.50;2304.00;;;;;;5069726;28;19904;-71
2023/04/11 09:35:23;;;;;;;;;;;435.40;2355.20;;;;;;5058936;28;19916;-73
2023/04/11 09:37:51;;;;;;;;;;;435.30;2355.20;;;;;;5058714;28;19904;-72
2023/04/11 09:40:17;;;;;;;;;;;435.20;2355.20;;;;;;5062728;28;19996;-72
2023/04/11 09:42:43;;;;;;;;;;;410.40;2355.20;;;;;;5057946;28;20274;-72
2023/04/11 09:45:16;;;;;;;;;;;410.20;2355.20;;;;;;5058154;28;20326;-71
2023/04/11 09:47:42;;;;;;;;;;;410.50;2355.20;;;;;;5062367;28;20381;-71
2023/04/11 09:50:08;;;;;;;;;;;435.20;2355.20;;;;;;5065523;28;19912;-70
2023/04/11 09:52:35;;;;;;;;;;;435.30;2304.00;;;;;;5059165;28;19905;-71
2023/04/11 09:55:01;;;;;;;;;;;435.70;2304.00;;;;;;5062522;28;19905;-73
2023/04/11 09:57:29;;;;;;;;;;;436.10;2278.40;;;;;;5060385;28;19908;-70
2023/04/11 09:59:55;;;;;;;;;;;460.80;2124.80;;;;;;5067322;28;19940;-72
2023/04/11 10:02:20;;;;;;;;;;;436.10;2022.40;;;;;;5074506;28;19913;-71
2023/04/11 10:04:46;;;;;;;;;;;460.90;1996.80;;;;;;5058271;28;19928;-71
2023/04/11 10:07:12;;;;;;;;;;;461.10;1996.80;;;;;;5063382;28;19909;-70
2023/04/11 10:09:39;;;;;;;;;;;460.80;2124.80;;;;;;5064729;28;19904;-72
2023/04/11 10:12:05;;;;;;;;;;;436.00;2048.00;;;;;;5059828;28;19905;-74
2023/04/11 10:14:37;;;;;;;;;;;435.70;2022.40;;;;;;5058562;28;20293;-70
2023/04/11 10:17:13;;;;;;;;;;;435.70;2150.40;;;;;;5065954;28;20009;-72
2023/04/11 10:19:39;;;;;;;;;;;435.90;2022.40;;;;;;5058048;28;19912;-70
2023/04/11 10:22:04;;;;;;;;;;;435.70;1996.80;;;;;;5057301;28;19917;-69
2023/04/11 10:24:30;;;;;;;;;;;435.60;2022.40;;;;;;5064796;28;20254;-70
2023/04/11 10:26:56;;;;;;;;;;;435.50;2073.60;;;;;;5068203;28;19904;-71
2023/04/11 10:29:39;;;;;;;;;;;435.40;2124.80;;;;;;5059106;28;20004;-69
2023/04/11 10:32:18;;;;;;;;;;;435.70;2099.20;;;;;;5064338;28;19912;-69
2023/04/11 10:35:04;;;;;;;;;;;435.90;2073.60;;;;;;5057307;28;19905;-70
2023/04/11 10:37:31;;;;;;;;;;;461.00;1996.80;;;;;;5057133;28;20047;-72
2023/04/11 10:39:59;;;;;;;;;;;461.20;1945.60;;;;;;5061523;28;19915;-72
2023/04/11 10:42:40;;;;;;;;;;;461.00;1920.00;;;;;;5065543;28;19951;-72
2023/04/11 10:45:15;;;;;;;;;;;461.30;1868.80;;;;;;5057469;28;19912;-70
2023/04/11 10:47:41;;;;;;;;;;;486.40;1817.60;;;;;;5061164;28;19955;-71
2023/04/11 10:50:36;;;;;;;;;;;486.80;1792.00;;;;;;5060836;28;19944;-75
2023/04/11 10:53:03;;;;;;;;;;;486.70;1817.60;;;;;;5058646;28;19905;-71
2023/04/11 10:55:31;;;;;;;;;;;487.10;1689.60;;;;;;5063494;28;19905;-71
2023/04/11 10:58:04;;;;;;;;;;;487.10;1715.20;;;;;;5059735;28;19913;-70
2023/04/11 11:00:53;;;;;;;;;;;486.70;1740.80;;;;;;5063468;28;19904;-70
2023/04/11 11:03:18;;;;;;;;;;;486.40;1766.40;;;;;;5066654;28;19923;-73
2023/04/11 11:05:44;;;;;;;;;;;486.50;1715.20;;;;;;5058430;28;19905;-70
2023/04/11 11:08:10;;;;;;;;;;;486.90;1740.80;;;;;;5064641;28;19905;-70
2023/04/11 11:10:39;;;;;;;;;;;486.90;1689.60;;;;;;5063724;28;19999;-70
2023/04/11 11:13:04;;;;;;;;;;;487.10;1638.40;;;;;;5059374;28;19905;-71
2023/04/11 11:15:36;;;;;;;;;;;512.20;1587.20;;;;;;5066250;28;19931;-71
2023/04/11 11:18:07;;;;;;;;;;;512.60;1536.00;;;;;;5065783;28;20371;-72
2023/04/11 11:20:33;;;;;;;;;;;537.60;1561.60;;;;;;5061013;28;19905;-72
2023/04/11 11:22:59;;;;;;;;;;;537.60;1536.00;;;;;;5067591;28;19919;-71
2023/04/11 11:25:26;;;;;;;;;;;512.80;1536.00;;;;;;5059726;28;20342;-70
2023/04/11 11:28:00;;;;;;;;;;;487.30;1561.60;;;;;;5061746;28;19905;-70
2023/04/11 11:30:26;;;;;;;;;;;512.20;1561.60;;;;;;5063251;28;19904;-71
2023/04/11 11:32:51;;;;;;;;;;;512.80;1536.00;;;;;;5062076;28;20375;-69
2023/04/11 11:35:17;;;;;;;;;;;512.40;1536.00;;;;;;5058924;28;19957;-69
2023/04/11 11:37:42;;;;;;;;;;;487.10;1561.60;;;;;;5057686;28;19905;-70
2023/04/11 11:40:12;;;;;;;;;;;486.80;1612.80;;;;;;5066688;28;19918;-72
2023/04/11 11:42:40;;;;;;;;;;;486.50;1638.40;;;;;;5058051;28;19934;-71
2023/04/11 11:45:16;;;;;;;;;;;486.60;1612.80;;;;;;5057362;28;20370;-70
2023/04/11 11:47:42;;;;;;;;;;;486.90;1612.80;;;;;;5062573;28;19908;-70
2023/04/11 11:50:08;;;;;;;;;;;486.80;1612.80;;;;;;5055942;28;19949;-69
2023/04/11 11:52:35;;;;;;;;;;;486.70;1612.80;;;;;;5054489;28;19915;-70
2023/04/11 11:55:02;;;;;;;;;;;486.80;1664.00;;;;;;5063864;28;19912;-71
2023/04/11 11:57:27;;;;;;;;;;;512.20;1638.40;;;;;;5061321;28;19912;-69
2023/04/11 11:59:54;;;;;;;;;;;512.80;1536.00;;;;;;5066287;28;19908;-70
2023/04/11 12:02:21;;;;;;;;;;;512.90;1484.80;;;;;;5063598;28;20354;-71
2023/04/11 12:04:47;;;;;;;;;;;512.40;1484.80;;;;;;5058860;28;20007;-70
2023/04/11 12:07:12;;;;;;;;;;;487.30;1536.00;;;;;;5061978;28;19939;-71
2023/04/11 12:09:38;;;;;;;;;;;486.90;1638.40;;;;;;5060498;28;19928;-71
2023/04/11 12:12:07;;;;;;;;;;;487.00;1638.40;;;;;;5058153;28;19950;-72
2023/04/11 12:14:33;;;;;;;;;;;512.00;1612.80;;;;;;5055834;28;19967;-70
2023/04/11 12:16:59;;;;;;;;;;;487.10;1612.80;;;;;;5064421;28;19908;-71
2023/04/11 12:19:25;;;;;;;;;;;487.10;1561.60;;;;;;5054846;28;19962;-71
2023/04/11 12:21:51;;;;;;;;;;;487.30;1561.60;;;;;;5056487;28;19936;-72
2023/04/11 12:24:17;;;;;;;;;;;512.80;1536.00;;;;;;5063962;28;19908;-73
2023/04/11 12:26:44;;;;;;;;;;;538.00;1510.40;;;;;;5061795;28;19966;-71
2023/04/11 12:29:10;;;;;;;;;;;537.80;1484.80;;;;;;5059161;28;19904;-72
2023/04/11 12:31:36;;;;;;;;;;;537.60;1484.80;;;;;;5056729;28;20022;-72
2023/04/11 12:34:01;;;;;;;;;;;538.00;1484.80;;;;;;5056520;28;19912;-74
2023/04/11 12:36:27;;;;;;;;;;;538.40;1510.40;;;;;;5065982;28;19912;-70
2023/04/11 12:38:53;;;;;;;;;;;537.90;1433.60;;;;;;5057209;28;20380;-70
2023/04/11 12:41:19;;;;;;;;;;;512.50;1459.20;;;;;;5054875;28;19913;-70
2023/04/11 12:43:45;;;;;;;;;;;512.30;1484.80;;;;;;5062751;28;20428;-71
2023/04/11 12:46:10;;;;;;;;;;;512.90;1484.80;;;;;;5055908;28;19917;-70
2023/04/11 12:48:36;;;;;;;;;;;537.60;1459.20;;;;;;5064641;28;19962;-70
2023/04/11 12:51:02;;;;;;;;;;;512.70;1433.60;;;;;;5062469;28;19946;-70
2023/04/11 12:53:27;;;;;;;;;;;537.80;1408.00;;;;;;5060068;28;19905;-73
2023/04/11 12:55:53;;;;;;;;;;;538.10;1382.40;;;;;;5066928;28;20352;-70
2023/04/11 12:58:18;;;;;;;;;;;512.90;1408.00;;;;;;5061625;28;20417;-71
2023/04/11 13:00:44;;;;;;;;;;;512.40;1433.60;;;;;;5067619;28;19992;-70
2023/04/11 13:03:10;;;;;;;;;;;487.30;1484.80;;;;;;5061075;28;20335;-71
2023/04/11 13:05:36;;;;;;;;;;;487.10;1510.40;;;;;;5059067;28;19948;-71
2023/04/11 13:08:01;;;;;;;;;;;487.20;1536.00;;;;;;5061744;28;19946;-72
2023/04/11 13:10:27;;;;;;;;;;;512.00;1536.00;;;;;;5069451;28;19910;-71
2023/04/11 13:12:55;;;;;;;;;;;512.10;1484.80;;;;;;5067882;28;19966;-72
2023/04/11 13:15:21;;;;;;;;;;;487.10;1536.00;;;;;;5060258;28;19952;-72
2023/04/11 13:17:46;;;;;;;;;;;487.00;1510.40;;;;;;5061761;28;19940;-71
2023/04/11 13:20:12;;;;;;;;;;;512.00;1484.80;;;;;;5061316;28;20007;-71
2023/04/11 13:22:38;;;;;;;;;;;512.50;1484.80;;;;;;5066050;28;20266;-72
2023/04/11 13:25:04;;;;;;;;;;;512.90;1459.20;;;;;;5058209;28;19966;-72
2023/04/11 13:27:29;;;;;;;;;;;537.80;1408.00;;;;;;5061771;28;20296;-69
2023/04/11 13:29:55;;;;;;;;;;;512.90;1408.00;;;;;;5069974;28;19950;-72
2023/04/11 13:32:20;;;;;;;;;;;512.60;1408.00;;;;;;5064743;28;20270;-70
2023/04/11 13:34:46;;;;;;;;;;;512.30;1408.00;;;;;;5062650;28;19904;-69
2023/04/11 13:37:11;;;;;;;;;;;512.30;1433.60;;;;;;5066982;28;19936;-70
2023/04/11 13:39:37;;;;;;;;;;;512.10;1459.20;;;;;;5064317;28;19905;-71